Time;durP1;ratioP1;P1;durP2;ratioP2;P2;SDS_P1;SDS_P2;PMS_P1;PMS_P2;Temp;Humidity;BMP_temperature;BMP_pressure;BME280_temperature;BME280_humidity;BME280_pressure;Samples;Min_cycle;Max_cycle;Signal;HPM_P1;HPM_P2
2022/06/30 00:00:12;;;;;;;0.70;0.70;;;;;;;;;;5061156;28;20599;-71
2022/06/30 00:02:59;;;;;;;0.90;0.90;;;;;;;;;;5060185;28;20702;-70
2022/06/30 00:05:47;;;;;;;0.90;0.90;;;;;;;;;;5061777;28;20213;-71
2022/06/30 00:08:34;;;;;;;1.90;0.90;;;;;;;;;;5055322;28;20239;-71
2022/06/30 00:11:21;;;;;;;0.80;0.80;;;;;;;;;;5056845;28;20231;-71
2022/06/30 00:14:09;;;;;;;0.70;0.70;;;;;;;;;;5062520;28;20214;-72
2022/06/30 00:16:56;;;;;;;0.90;0.90;;;;;;;;;;5057752;28;20294;-72
2022/06/30 00:19:45;;;;;;;0.83;0.83;;;;;;;;;;5063084;28;20253;-72
2022/06/30 00:22:33;;;;;;;0.80;0.80;;;;;;;;;;5061845;28;20263;-72
2022/06/30 00:25:20;;;;;;;1.47;0.80;;;;;;;;;;5060252;28;20204;-72
2022/06/30 00:28:07;;;;;;;0.80;0.80;;;;;;;;;;5058845;28;20207;-72
2022/06/30 00:30:54;;;;;;;0.60;0.60;;;;;;;;;;5059485;28;20204;-72
2022/06/30 00:33:41;;;;;;;0.87;0.87;;;;;;;;;;5062563;28;20208;-71
2022/06/30 00:36:29;;;;;;;1.27;1.00;;;;;;;;;;5062414;28;20216;-71
2022/06/30 00:39:17;;;;;;;1.17;0.80;;;;;;;;;;5055116;28;20224;-72
2022/06/30 00:42:05;;;;;;;0.77;0.77;;;;;;;;;;5061006;28;20219;-72
2022/06/30 00:44:52;;;;;;;0.70;0.70;;;;;;;;;;5060932;28;20257;-71
2022/06/30 00:47:40;;;;;;;0.80;0.80;;;;;;;;;;5055352;28;20212;-71
2022/06/30 00:50:27;;;;;;;0.80;0.80;;;;;;;;;;5060921;28;20215;-71
2022/06/30 00:53:16;;;;;;;0.60;0.60;;;;;;;;;;5058125;28;20619;-72
2022/06/30 00:56:06;;;;;;;3.27;0.97;;;;;;;;;;5057258;28;20290;-71
2022/06/30 00:58:56;;;;;;;0.93;0.93;;;;;;;;;;5058707;28;20696;-71
2022/06/30 01:01:44;;;;;;;0.80;0.80;;;;;;;;;;5051561;28;20318;-71
2022/06/30 01:04:34;;;;;;;1.13;0.70;;;;;;;;;;5058109;28;20234;-71
2022/06/30 01:07:22;;;;;;;0.60;0.60;;;;;;;;;;5053737;28;20206;-72
2022/06/30 01:13:15;;;;;;;0.67;0.67;;;;;;;;;;5059866;28;20201;-71
2022/06/30 01:16:02;;;;;;;0.70;0.70;;;;;;;;;;5056611;28;20281;-72
2022/06/30 01:18:49;;;;;;;1.20;1.03;;;;;;;;;;5056807;28;20231;-71
2022/06/30 01:21:38;;;;;;;0.77;0.77;;;;;;;;;;5056040;28;20301;-71
2022/06/30 01:24:25;;;;;;;0.87;0.87;;;;;;;;;;5057168;28;20271;-69
2022/06/30 01:27:12;;;;;;;0.70;0.70;;;;;;;;;;5057205;28;20214;-71
2022/06/30 01:29:59;;;;;;;0.90;0.90;;;;;;;;;;5063172;28;20207;-71
2022/06/30 01:32:46;;;;;;;0.57;0.57;;;;;;;;;;5062256;28;20220;-71
2022/06/30 01:35:33;;;;;;;0.70;0.70;;;;;;;;;;5056123;28;20244;-71
2022/06/30 01:38:22;;;;;;;1.33;0.70;;;;;;;;;;5063686;28;20348;-72
2022/06/30 01:41:08;;;;;;;1.00;1.00;;;;;;;;;;5057679;28;20246;-71
2022/06/30 01:43:55;;;;;;;0.97;0.77;;;;;;;;;;5061756;28;20209;-71
2022/06/30 01:46:46;;;;;;;0.63;0.63;;;;;;;;;;5057328;28;20575;-72
2022/06/30 01:49:33;;;;;;;1.03;0.70;;;;;;;;;;5061308;28;20563;-72
2022/06/30 01:52:20;;;;;;;0.70;0.70;;;;;;;;;;5061522;28;20614;-70
2022/06/30 01:55:09;;;;;;;0.53;0.53;;;;;;;;;;5058615;28;20213;-72
2022/06/30 01:57:56;;;;;;;0.67;0.67;;;;;;;;;;5059329;28;20202;-72
2022/06/30 02:00:43;;;;;;;0.60;0.60;;;;;;;;;;5067403;28;20237;-71
2022/06/30 02:03:31;;;;;;;1.40;0.87;;;;;;;;;;5062704;28;20222;-72
2022/06/30 02:06:18;;;;;;;0.97;0.60;;;;;;;;;;5056451;28;20208;-72
2022/06/30 02:09:04;;;;;;;0.93;0.70;;;;;;;;;;5059965;28;20320;-71
2022/06/30 02:12:44;;;;;;;0.60;0.60;;;;;;;;;;5058873;28;20237;-71
2022/06/30 02:15:00;;;;;;;0.70;0.70;;;;;;;;;;5055814;28;20235;-71
2022/06/30 02:17:49;;;;;;;0.67;0.67;;;;;;;;;;5061524;28;20210;-71
2022/06/30 02:20:37;;;;;;;1.60;0.70;;;;;;;;;;5061315;28;20615;-71
2022/06/30 02:23:24;;;;;;;0.70;0.70;;;;;;;;;;5062171;28;20214;-71
2022/06/30 02:26:11;;;;;;;0.70;0.70;;;;;;;;;;5061007;28;20928;-71
2022/06/30 02:29:01;;;;;;;0.70;0.70;;;;;;;;;;5060850;28;20203;-71
2022/06/30 02:31:48;;;;;;;0.80;0.80;;;;;;;;;;5061242;28;20328;-71
2022/06/30 02:34:35;;;;;;;0.67;0.67;;;;;;;;;;5054286;28;20263;-71
2022/06/30 02:37:22;;;;;;;0.60;0.60;;;;;;;;;;5060292;28;20206;-71
2022/06/30 02:40:09;;;;;;;0.70;0.70;;;;;;;;;;5052202;28;20752;-71
2022/06/30 02:42:56;;;;;;;0.70;0.70;;;;;;;;;;5057831;28;20237;-71
2022/06/30 02:45:45;;;;;;;0.53;0.53;;;;;;;;;;5061820;28;20571;-71
2022/06/30 02:48:32;;;;;;;0.70;0.70;;;;;;;;;;5061357;28;20237;-71
2022/06/30 02:51:19;;;;;;;0.80;0.80;;;;;;;;;;5056832;28;20209;-71
2022/06/30 02:54:06;;;;;;;0.60;0.60;;;;;;;;;;5062356;28;20217;-71
2022/06/30 02:56:53;;;;;;;1.23;0.70;;;;;;;;;;5060924;28;20220;-72
2022/06/30 02:59:39;;;;;;;0.60;0.60;;;;;;;;;;5054834;28;20228;-71
2022/06/30 03:02:28;;;;;;;0.93;0.70;;;;;;;;;;5056402;28;20262;-71
2022/06/30 03:05:15;;;;;;;0.77;0.77;;;;;;;;;;5056199;28;20583;-71
2022/06/30 03:08:02;;;;;;;0.70;0.70;;;;;;;;;;5057611;28;20234;-71
2022/06/30 03:10:49;;;;;;;0.50;0.50;;;;;;;;;;5060525;28;20209;-70
2022/06/30 03:13:36;;;;;;;0.70;0.70;;;;;;;;;;5052562;28;20210;-71
2022/06/30 03:16:23;;;;;;;0.80;0.80;;;;;;;;;;5059925;28;20659;-70
2022/06/30 03:19:11;;;;;;;1.47;0.70;;;;;;;;;;5063890;28;20699;-70
2022/06/30 03:21:58;;;;;;;0.70;0.70;;;;;;;;;;5054529;28;20291;-71
2022/06/30 03:24:45;;;;;;;0.63;0.63;;;;;;;;;;5056446;28;20558;-71
2022/06/30 03:27:32;;;;;;;0.60;0.60;;;;;;;;;;5060508;28;20558;-71
2022/06/30 03:30:19;;;;;;;0.60;0.60;;;;;;;;;;5057405;28;20201;-71
2022/06/30 03:33:06;;;;;;;0.77;0.77;;;;;;;;;;5057461;28;20579;-71
2022/06/30 03:35:54;;;;;;;0.70;0.70;;;;;;;;;;5060424;28;20210;-70
2022/06/30 03:38:41;;;;;;;0.70;0.70;;;;;;;;;;5054027;28;20210;-71
2022/06/30 03:41:29;;;;;;;0.60;0.60;;;;;;;;;;5057345;28;20206;-71
2022/06/30 03:44:16;;;;;;;0.60;0.60;;;;;;;;;;5059101;28;20209;-71
2022/06/30 03:47:03;;;;;;;0.43;0.43;;;;;;;;;;5056788;28;20248;-70
2022/06/30 03:49:50;;;;;;;1.47;0.60;;;;;;;;;;5061475;28;20211;-70
2022/06/30 03:52:38;;;;;;;0.60;0.60;;;;;;;;;;5056252;28;20221;-71
2022/06/30 03:55:26;;;;;;;0.60;0.60;;;;;;;;;;5055115;28;20209;-71
2022/06/30 03:58:13;;;;;;;0.63;0.63;;;;;;;;;;5052445;28;20667;-70
2022/06/30 04:01:00;;;;;;;0.80;0.80;;;;;;;;;;5060288;28;20222;-72
2022/06/30 04:03:47;;;;;;;0.67;0.67;;;;;;;;;;5061210;28;20229;-70
2022/06/30 04:06:34;;;;;;;0.70;0.70;;;;;;;;;;5054364;28;20209;-71
2022/06/30 04:09:22;;;;;;;0.50;0.50;;;;;;;;;;5055429;28;20698;-72
2022/06/30 04:12:09;;;;;;;0.50;0.50;;;;;;;;;;5055438;28;20225;-71
2022/06/30 04:14:56;;;;;;;0.60;0.60;;;;;;;;;;5058736;28;20295;-70
2022/06/30 04:17:43;;;;;;;0.70;0.70;;;;;;;;;;5059034;28;20216;-70
2022/06/30 04:20:30;;;;;;;0.80;0.80;;;;;;;;;;5057952;28;20229;-71
2022/06/30 04:23:17;;;;;;;0.60;0.60;;;;;;;;;;5058706;28;20635;-70
2022/06/30 04:26:06;;;;;;;0.57;0.57;;;;;;;;;;5058083;28;20202;-71
2022/06/30 04:28:54;;;;;;;0.60;0.60;;;;;;;;;;5058430;28;20213;-72
2022/06/30 04:34:46;;;;;;;0.60;0.60;;;;;;;;;;5055018;28;20289;-71
2022/06/30 04:37:33;;;;;;;0.63;0.60;;;;;;;;;;5055670;28;20218;-71
2022/06/30 04:43:26;;;;;;;0.63;0.63;;;;;;;;;;5059383;28;20210;-70
2022/06/30 04:46:13;;;;;;;0.43;0.43;;;;;;;;;;5057896;28;20620;-71
2022/06/30 04:49:00;;;;;;;0.57;0.57;;;;;;;;;;5062470;28;20216;-71
2022/06/30 04:51:47;;;;;;;0.63;0.63;;;;;;;;;;5062190;28;20209;-70
2022/06/30 04:54:34;;;;;;;0.80;0.80;;;;;;;;;;5060779;28;20216;-70
2022/06/30 04:57:21;;;;;;;0.57;0.57;;;;;;;;;;5056480;28;20204;-71
2022/06/30 05:00:11;;;;;;;0.70;0.70;;;;;;;;;;5057368;28;20308;-71
2022/06/30 05:02:58;;;;;;;0.90;0.90;;;;;;;;;;5062319;28;20229;-70
2022/06/30 05:05:45;;;;;;;1.13;0.80;;;;;;;;;;5057284;28;20282;-71
2022/06/30 05:08:33;;;;;;;0.73;0.73;;;;;;;;;;5058062;28;20292;-71
2022/06/30 05:11:20;;;;;;;0.50;0.50;;;;;;;;;;5064885;28;20202;-71
2022/06/30 05:14:07;;;;;;;0.70;0.50;;;;;;;;;;5060906;28;20665;-71
2022/06/30 05:16:55;;;;;;;0.70;0.70;;;;;;;;;;5059939;28;20268;-71
2022/06/30 05:19:42;;;;;;;0.85;0.85;;;;;;;;;;5063190;28;20233;-71
2022/06/30 05:22:29;;;;;;;0.77;0.77;;;;;;;;;;5065669;28;20221;-70
2022/06/30 05:28:21;;;;;;;0.47;0.47;;;;;;;;;;5060488;28;20210;-71
2022/06/30 05:31:08;;;;;;;0.60;0.60;;;;;;;;;;5058782;28;20207;-71
2022/06/30 05:33:56;;;;;;;0.63;0.63;;;;;;;;;;5062068;28;20230;-70
2022/06/30 05:36:43;;;;;;;0.60;0.60;;;;;;;;;;5055754;28;20559;-70
2022/06/30 05:39:32;;;;;;;0.55;0.55;;;;;;;;;;5055854;28;20203;-70
2022/06/30 05:42:19;;;;;;;0.65;0.65;;;;;;;;;;5060789;28;20260;-71
2022/06/30 05:45:07;;;;;;;0.52;0.52;;;;;;;;;;5059642;28;20278;-70
2022/06/30 05:47:54;;;;;;;0.60;0.60;;;;;;;;;;5058444;28;20239;-71
2022/06/30 05:50:42;;;;;;;0.73;0.73;;;;;;;;;;5057533;28;20252;-71
2022/06/30 05:53:29;;;;;;;0.70;0.70;;;;;;;;;;5062307;28;20521;-71
2022/06/30 05:56:16;;;;;;;0.50;0.50;;;;;;;;;;5054431;28;20210;-71
2022/06/30 05:59:03;;;;;;;0.70;0.70;;;;;;;;;;5064103;28;20235;-70
2022/06/30 06:01:50;;;;;;;0.77;0.70;;;;;;;;;;5064308;28;20231;-71
2022/06/30 06:04:37;;;;;;;0.52;0.52;;;;;;;;;;5061930;28;20215;-71
2022/06/30 06:07:25;;;;;;;0.50;0.50;;;;;;;;;;5058370;28;20232;-71
2022/06/30 06:10:13;;;;;;;0.55;0.55;;;;;;;;;;5056872;28;20203;-72
2022/06/30 06:13:00;;;;;;;1.40;0.43;;;;;;;;;;5057838;28;20664;-72
2022/06/30 06:15:48;;;;;;;0.60;0.60;;;;;;;;;;5065136;28;20210;-71
2022/06/30 06:18:35;;;;;;;0.50;0.50;;;;;;;;;;5054961;28;20204;-70
2022/06/30 06:21:22;;;;;;;0.57;0.57;;;;;;;;;;5060104;28;20309;-71
2022/06/30 06:24:10;;;;;;;0.65;0.65;;;;;;;;;;5062124;28;20689;-71
2022/06/30 06:26:57;;;;;;;0.40;0.40;;;;;;;;;;5063794;28;20656;-72
2022/06/30 06:29:44;;;;;;;0.60;0.60;;;;;;;;;;5065095;28;20211;-71
2022/06/30 06:32:31;;;;;;;0.57;0.57;;;;;;;;;;5060525;28;20214;-71
2022/06/30 06:35:18;;;;;;;0.32;0.32;;;;;;;;;;5057801;28;20254;-71
2022/06/30 06:38:05;;;;;;;0.50;0.50;;;;;;;;;;5065422;28;20213;-71
2022/06/30 06:40:54;;;;;;;0.50;0.50;;;;;;;;;;5058370;28;20224;-70
2022/06/30 06:43:41;;;;;;;0.50;0.50;;;;;;;;;;5059149;28;20705;-72
2022/06/30 06:46:28;;;;;;;0.63;0.63;;;;;;;;;;5061359;28;20207;-72
2022/06/30 06:49:15;;;;;;;0.50;0.50;;;;;;;;;;5056466;28;20207;-71
2022/06/30 06:52:02;;;;;;;0.60;0.60;;;;;;;;;;5061539;28;20191;-71
2022/06/30 06:54:49;;;;;;;0.60;0.60;;;;;;;;;;5061654;28;20291;-70
2022/06/30 06:57:39;;;;;;;0.50;0.50;;;;;;;;;;5059199;28;20573;-70
2022/06/30 07:00:26;;;;;;;0.40;0.40;;;;;;;;;;5060345;28;20709;-71
2022/06/30 07:03:13;;;;;;;0.50;0.50;;;;;;;;;;5067713;28;20215;-71
2022/06/30 07:06:00;;;;;;;0.55;0.47;;;;;;;;;;5060389;28;20196;-72
2022/06/30 07:08:47;;;;;;;0.40;0.40;;;;;;;;;;5054033;28;20247;-71
2022/06/30 07:11:34;;;;;;;0.35;0.35;;;;;;;;;;5057544;28;20622;-73
2022/06/30 07:14:22;;;;;;;0.32;0.32;;;;;;;;;;5056768;28;20290;-72
2022/06/30 07:17:09;;;;;;;0.50;0.50;;;;;;;;;;5057099;28;20234;-71
2022/06/30 07:19:56;;;;;;;1.17;0.63;;;;;;;;;;5060046;28;20224;-71
2022/06/30 07:22:43;;;;;;;0.45;0.45;;;;;;;;;;5059728;28;20222;-69
2022/06/30 07:25:30;;;;;;;1.23;0.47;;;;;;;;;;5062605;28;20285;-70
2022/06/30 07:28:18;;;;;;;0.40;0.40;;;;;;;;;;5053190;28;20559;-70
2022/06/30 07:31:06;;;;;;;0.32;0.32;;;;;;;;;;5057522;28;20313;-72
2022/06/30 07:33:53;;;;;;;0.30;0.30;;;;;;;;;;5059704;28;20290;-72
2022/06/30 07:36:41;;;;;;;0.30;0.30;;;;;;;;;;5061525;28;20204;-72
2022/06/30 07:39:28;;;;;;;0.32;0.32;;;;;;;;;;5055587;28;20294;-72
2022/06/30 07:42:15;;;;;;;0.40;0.40;;;;;;;;;;5059581;28;20321;-71
2022/06/30 07:45:03;;;;;;;0.40;0.40;;;;;;;;;;5056854;28;20209;-70
2022/06/30 07:47:53;;;;;;;0.20;0.20;;;;;;;;;;5059133;28;20207;-72
2022/06/30 07:50:40;;;;;;;0.32;0.32;;;;;;;;;;5056459;28;20199;-71
2022/06/30 07:53:27;;;;;;;0.35;0.35;;;;;;;;;;5056847;28;20601;-70
2022/06/30 07:56:14;;;;;;;0.50;0.50;;;;;;;;;;5059428;28;20210;-72
2022/06/30 07:59:02;;;;;;;0.43;0.43;;;;;;;;;;5062978;28;20659;-70
2022/06/30 08:01:48;;;;;;;0.68;0.30;;;;;;;;;;5057258;28;20237;-72
2022/06/30 08:04:37;;;;;;;0.40;0.40;;;;;;;;;;5058238;28;20214;-70
2022/06/30 08:07:24;;;;;;;0.38;0.38;;;;;;;;;;5053119;28;20231;-71
2022/06/30 08:10:11;;;;;;;0.30;0.30;;;;;;;;;;5063673;28;20229;-72
2022/06/30 08:12:58;;;;;;;0.20;0.20;;;;;;;;;;5057204;28;20195;-72
2022/06/30 08:15:45;;;;;;;0.30;0.30;;;;;;;;;;5055396;28;20226;-71
2022/06/30 08:18:32;;;;;;;0.93;0.55;;;;;;;;;;5059605;28;20402;-71
2022/06/30 08:21:20;;;;;;;0.43;0.43;;;;;;;;;;5057665;28;20238;-71
2022/06/30 08:24:07;;;;;;;0.30;0.30;;;;;;;;;;5060292;28;20203;-71
2022/06/30 08:26:54;;;;;;;0.35;0.35;;;;;;;;;;5054586;28;20546;-71
2022/06/30 08:29:41;;;;;;;0.40;0.40;;;;;;;;;;5056591;28;20686;-71
2022/06/30 08:32:29;;;;;;;0.65;0.32;;;;;;;;;;5058667;28;20249;-71
2022/06/30 08:35:16;;;;;;;0.40;0.40;;;;;;;;;;5052887;28;20328;-70
2022/06/30 08:38:04;;;;;;;0.22;0.22;;;;;;;;;;5062078;28;20296;-71
2022/06/30 08:43:57;;;;;;;0.30;0.30;;;;;;;;;;5063159;28;20202;-71
2022/06/30 08:46:47;;;;;;;0.50;0.50;;;;;;;;;;5063666;28;20626;-72
2022/06/30 08:49:34;;;;;;;0.30;0.30;;;;;;;;;;5064008;28;20204;-72
2022/06/30 08:52:22;;;;;;;0.32;0.32;;;;;;;;;;5060902;28;20211;-73
2022/06/30 08:55:12;;;;;;;0.40;0.40;;;;;;;;;;5061995;28;20723;-74
2022/06/30 08:58:03;;;;;;;0.50;0.50;;;;;;;;;;5062100;28;20214;-72
2022/06/30 09:00:52;;;;;;;0.60;0.60;;;;;;;;;;5058114;28;20591;-71
2022/06/30 09:03:40;;;;;;;0.60;0.60;;;;;;;;;;5062187;28;20235;-71
2022/06/30 09:06:27;;;;;;;0.60;0.60;;;;;;;;;;5056877;28;20297;-72
2022/06/30 09:09:14;;;;;;;0.52;0.52;;;;;;;;;;5046481;28;20235;-73
2022/06/30 09:12:03;;;;;;;0.40;0.40;;;;;;;;;;5040424;28;20210;-71
2022/06/30 09:14:51;;;;;;;0.40;0.40;;;;;;;;;;5043764;28;20212;-72
2022/06/30 09:17:38;;;;;;;0.60;0.40;;;;;;;;;;5037914;28;20593;-72
2022/06/30 09:20:33;;;;;;;0.35;0.35;;;;;;;;;;5044701;28;20200;-72
2022/06/30 09:23:22;;;;;;;0.50;0.50;;;;;;;;;;5041611;28;20287;-72
2022/06/30 09:26:15;;;;;;;0.63;0.63;;;;;;;;;;5044528;28;20291;-72
2022/06/30 09:29:08;;;;;;;0.40;0.40;;;;;;;;;;5042578;28;20716;-71
2022/06/30 09:31:57;;;;;;;0.30;0.30;;;;;;;;;;5040610;28;20209;-72
2022/06/30 09:34:44;;;;;;;0.85;0.47;;;;;;;;;;5042806;28;20204;-72
2022/06/30 09:37:31;;;;;;;0.52;0.52;;;;;;;;;;5039995;28;20609;-71
2022/06/30 09:40:29;;;;;;;0.65;0.60;;;;;;;;;;5042359;28;20204;-71
2022/06/30 09:43:30;;;;;;;0.50;0.50;;;;;;;;;;5036748;28;20294;-71
2022/06/30 09:46:19;;;;;;;0.50;0.50;;;;;;;;;;5035902;28;20597;-72
2022/06/30 09:49:06;;;;;;;0.60;0.60;;;;;;;;;;5041304;28;20211;-72
2022/06/30 09:51:53;;;;;;;0.50;0.50;;;;;;;;;;5035938;28;20697;-72
2022/06/30 09:54:40;;;;;;;0.50;0.50;;;;;;;;;;5044659;28;20355;-73
2022/06/30 09:57:29;;;;;;;0.50;0.50;;;;;;;;;;5039643;28;20424;-71
2022/06/30 10:00:18;;;;;;;0.50;0.50;;;;;;;;;;5041469;28;20216;-72
2022/06/30 10:03:07;;;;;;;0.52;0.52;;;;;;;;;;5048498;28;20335;-71
2022/06/30 10:06:08;;;;;;;0.45;0.45;;;;;;;;;;5042293;28;20204;-71
2022/06/30 10:08:56;;;;;;;0.43;0.43;;;;;;;;;;5059903;28;20231;-72
2022/06/30 10:11:44;;;;;;;0.55;0.55;;;;;;;;;;5057365;28;20266;-71
2022/06/30 10:14:34;;;;;;;0.45;0.45;;;;;;;;;;5059266;28;20207;-71
2022/06/30 10:17:23;;;;;;;1.33;0.57;;;;;;;;;;5058678;28;20655;-71
2022/06/30 10:20:12;;;;;;;0.50;0.50;;;;;;;;;;5060150;28;20234;-71
2022/06/30 10:23:00;;;;;;;0.40;0.40;;;;;;;;;;5059434;28;20714;-73
2022/06/30 10:25:48;;;;;;;0.52;0.40;;;;;;;;;;5059830;28;20200;-71
2022/06/30 10:28:35;;;;;;;0.50;0.50;;;;;;;;;;5061415;28;20204;-72
2022/06/30 10:31:28;;;;;;;0.30;0.30;;;;;;;;;;5060027;28;20549;-71
2022/06/30 10:34:20;;;;;;;0.40;0.40;;;;;;;;;;5062746;28;20207;-71
2022/06/30 10:37:18;;;;;;;0.40;0.40;;;;;;;;;;5061323;28;20286;-72
2022/06/30 10:40:12;;;;;;;0.40;0.40;;;;;;;;;;5059785;28;20210;-71
2022/06/30 10:42:59;;;;;;;0.55;0.55;;;;;;;;;;5061968;28;20687;-72
2022/06/30 10:45:58;;;;;;;0.60;0.60;;;;;;;;;;5061541;28;20208;-71
2022/06/30 10:48:53;;;;;;;0.38;0.38;;;;;;;;;;5063028;28;20207;-71
2022/06/30 10:51:41;;;;;;;0.32;0.32;;;;;;;;;;5055535;28;20314;-71
2022/06/30 10:54:30;;;;;;;0.52;0.52;;;;;;;;;;5063251;28;20218;-70
2022/06/30 10:57:18;;;;;;;0.30;0.30;;;;;;;;;;5054605;28;20633;-71
2022/06/30 11:00:06;;;;;;;0.50;0.50;;;;;;;;;;5059119;28;20199;-71
2022/06/30 11:02:53;;;;;;;0.50;0.50;;;;;;;;;;5061737;28;20269;-71
2022/06/30 11:05:52;;;;;;;0.52;0.50;;;;;;;;;;5058013;28;20273;-70
2022/06/30 11:08:50;;;;;;;0.60;0.60;;;;;;;;;;5059028;28;20239;-71
2022/06/30 11:11:44;;;;;;;0.60;0.60;;;;;;;;;;5054711;28;20208;-71
2022/06/30 11:14:31;;;;;;;0.55;0.50;;;;;;;;;;5057012;28;20199;-71
2022/06/30 11:17:20;;;;;;;0.60;0.60;;;;;;;;;;5054173;28;20849;-71
2022/06/30 11:20:10;;;;;;;0.73;0.73;;;;;;;;;;5059338;28;20199;-72
2022/06/30 11:22:57;;;;;;;0.73;0.73;;;;;;;;;;5061794;28;20300;-72
2022/06/30 11:28:51;;;;;;;0.52;0.52;;;;;;;;;;5061202;28;20214;-72
2022/06/30 11:31:41;;;;;;;0.77;0.77;;;;;;;;;;5058559;28;20210;-72
2022/06/30 11:34:28;;;;;;;0.60;0.60;;;;;;;;;;5059657;28;20204;-71
2022/06/30 11:37:21;;;;;;;0.75;0.75;;;;;;;;;;5056412;28;20203;-73
2022/06/30 11:40:13;;;;;;;0.70;0.70;;;;;;;;;;5059473;28;20215;-71
2022/06/30 11:43:00;;;;;;;0.80;0.80;;;;;;;;;;5059168;28;20264;-72
2022/06/30 11:45:48;;;;;;;0.50;0.50;;;;;;;;;;5061532;28;20631;-72
2022/06/30 11:48:37;;;;;;;0.70;0.70;;;;;;;;;;5058608;28;20204;-71
2022/06/30 11:51:25;;;;;;;0.60;0.60;;;;;;;;;;5054676;28;20211;-71
2022/06/30 11:54:14;;;;;;;0.55;0.55;;;;;;;;;;5059127;28;20806;-73
2022/06/30 11:57:01;;;;;;;0.70;0.70;;;;;;;;;;5054165;28;20196;-71
2022/06/30 11:59:50;;;;;;;0.60;0.60;;;;;;;;;;5058963;28;20240;-72
2022/06/30 12:02:40;;;;;;;0.63;0.63;;;;;;;;;;5065099;28;20638;-72
2022/06/30 12:05:28;;;;;;;0.60;0.60;;;;;;;;;;5055561;28;20215;-71
2022/06/30 12:08:15;;;;;;;0.93;0.77;;;;;;;;;;5058128;28;20364;-71
2022/06/30 12:11:02;;;;;;;0.60;0.60;;;;;;;;;;5055411;28;20214;-71
2022/06/30 12:13:49;;;;;;;0.57;0.55;;;;;;;;;;5057911;28;20207;-71
2022/06/30 12:16:36;;;;;;;0.85;0.60;;;;;;;;;;5051460;28;20214;-70
2022/06/30 12:19:25;;;;;;;0.80;0.80;;;;;;;;;;5060370;28;20203;-71
2022/06/30 12:22:13;;;;;;;0.80;0.80;;;;;;;;;;5063670;28;20245;-72
2022/06/30 12:25:01;;;;;;;0.70;0.70;;;;;;;;;;5055278;28;20200;-72
2022/06/30 12:27:50;;;;;;;0.70;0.70;;;;;;;;;;5054359;28;20730;-70
2022/06/30 12:30:38;;;;;;;0.80;0.80;;;;;;;;;;5057025;28;20239;-71
2022/06/30 12:33:39;;;;;;;1.48;0.93;;;;;;;;;;5061133;28;20210;-71
2022/06/30 12:36:34;;;;;;;0.55;0.55;;;;;;;;;;5060146;28;20293;-70
2022/06/30 12:39:21;;;;;;;0.60;0.60;;;;;;;;;;5057187;28;20334;-71
2022/06/30 12:42:08;;;;;;;0.50;0.50;;;;;;;;;;5062476;28;20223;-71
2022/06/30 12:44:55;;;;;;;0.70;0.70;;;;;;;;;;5055991;28;20877;-71
2022/06/30 12:47:44;;;;;;;0.73;0.73;;;;;;;;;;5058035;28;20254;-71
2022/06/30 12:50:32;;;;;;;0.63;0.63;;;;;;;;;;5058916;28;20200;-72
2022/06/30 12:53:22;;;;;;;0.60;0.60;;;;;;;;;;5058950;28;20571;-71
2022/06/30 12:56:13;;;;;;;0.75;0.70;;;;;;;;;;5055222;28;20212;-71
2022/06/30 12:59:03;;;;;;;0.70;0.70;;;;;;;;;;5057934;28;20318;-71
2022/06/30 13:01:55;;;;;;;0.70;0.70;;;;;;;;;;5061408;28;20710;-70
2022/06/30 13:04:48;;;;;;;0.68;0.65;;;;;;;;;;5056956;28;20253;-72
2022/06/30 13:07:36;;;;;;;0.77;0.77;;;;;;;;;;5058604;28;20314;-71
2022/06/30 13:11:04;;;;;;;0.60;0.60;;;;;;;;;;5054126;28;20204;-70
2022/06/30 13:13:35;;;;;;;0.70;0.70;;;;;;;;;;5056529;28;20581;-71
2022/06/30 13:16:23;;;;;;;0.70;0.70;;;;;;;;;;5053962;28;20210;-71
2022/06/30 13:19:10;;;;;;;0.75;0.75;;;;;;;;;;5057360;28;20660;-71
2022/06/30 13:21:57;;;;;;;0.70;0.70;;;;;;;;;;5052615;28;20298;-70
2022/06/30 13:24:44;;;;;;;0.68;0.68;;;;;;;;;;5064356;28;20203;-72
2022/06/30 13:27:33;;;;;;;0.75;0.75;;;;;;;;;;5056035;28;20671;-71
2022/06/30 13:30:20;;;;;;;0.82;0.82;;;;;;;;;;5057914;28;20203;-72
2022/06/30 13:33:07;;;;;;;0.70;0.70;;;;;;;;;;5063315;28;20619;-71
2022/06/30 13:35:54;;;;;;;0.60;0.60;;;;;;;;;;5057331;28;20207;-71
2022/06/30 13:38:41;;;;;;;0.60;0.60;;;;;;;;;;5058746;28;20402;-71
2022/06/30 13:41:29;;;;;;;0.70;0.70;;;;;;;;;;5055681;28;20210;-70
2022/06/30 13:44:17;;;;;;;1.10;0.77;;;;;;;;;;5058751;28;20223;-71
2022/06/30 13:47:05;;;;;;;1.23;0.88;;;;;;;;;;5062080;28;20199;-70
2022/06/30 13:49:52;;;;;;;1.05;0.68;;;;;;;;;;5055744;28;20204;-72
2022/06/30 13:52:39;;;;;;;0.50;0.50;;;;;;;;;;5059634;28;20208;-70
2022/06/30 13:55:26;;;;;;;1.50;0.70;;;;;;;;;;5060075;28;20238;-71
2022/06/30 13:58:13;;;;;;;0.75;0.70;;;;;;;;;;5065567;28;20207;-71
2022/06/30 14:01:02;;;;;;;0.70;0.70;;;;;;;;;;5059526;28;20206;-71
2022/06/30 14:03:49;;;;;;;0.70;0.70;;;;;;;;;;5064696;28;20230;-70
2022/06/30 14:06:36;;;;;;;0.75;0.75;;;;;;;;;;5062551;28;20207;-71
2022/06/30 14:09:23;;;;;;;0.70;0.70;;;;;;;;;;5061327;28;20277;-71
2022/06/30 14:12:11;;;;;;;0.63;0.63;;;;;;;;;;5063215;28;20207;-72
2022/06/30 14:14:58;;;;;;;0.70;0.70;;;;;;;;;;5059577;28;20218;-70
2022/06/30 14:17:47;;;;;;;0.50;0.50;;;;;;;;;;5062566;28;20282;-71
2022/06/30 14:20:34;;;;;;;0.70;0.70;;;;;;;;;;5059129;28;20212;-71
2022/06/30 14:23:21;;;;;;;0.35;0.35;;;;;;;;;;5063380;28;20231;-70
2022/06/30 14:26:09;;;;;;;0.85;0.73;;;;;;;;;;5062478;28;20286;-73
2022/06/30 14:28:57;;;;;;;0.63;0.63;;;;;;;;;;5060548;28;20243;-71
2022/06/30 14:31:44;;;;;;;0.47;0.47;;;;;;;;;;5061085;28;20583;-72
2022/06/30 14:34:32;;;;;;;0.85;0.85;;;;;;;;;;5065938;28;20202;-71
2022/06/30 14:37:20;;;;;;;0.50;0.50;;;;;;;;;;5063382;28;20258;-71
2022/06/30 14:40:10;;;;;;;0.50;0.50;;;;;;;;;;5054611;28;20211;-71
2022/06/30 14:42:59;;;;;;;0.55;0.55;;;;;;;;;;5060773;28;20235;-71
2022/06/30 14:45:46;;;;;;;0.73;0.73;;;;;;;;;;5060967;28;20207;-71
2022/06/30 14:48:33;;;;;;;0.52;0.52;;;;;;;;;;5061553;28;20205;-71
2022/06/30 14:51:21;;;;;;;0.52;0.52;;;;;;;;;;5060757;28;20203;-71
2022/06/30 14:54:08;;;;;;;0.95;0.95;;;;;;;;;;5058142;28;20204;-71
2022/06/30 14:56:55;;;;;;;0.57;0.57;;;;;;;;;;5062662;28;20218;-71
2022/06/30 14:59:42;;;;;;;0.52;0.52;;;;;;;;;;5062672;28;20203;-71
2022/06/30 15:02:29;;;;;;;1.00;1.00;;;;;;;;;;5064649;28;20277;-70
2022/06/30 15:05:16;;;;;;;0.60;0.60;;;;;;;;;;5057462;28;20212;-71
2022/06/30 15:08:05;;;;;;;0.57;0.57;;;;;;;;;;5058689;28;20240;-71
2022/06/30 15:10:52;;;;;;;0.77;0.77;;;;;;;;;;5061596;28;20575;-71
2022/06/30 15:13:39;;;;;;;0.63;0.63;;;;;;;;;;5056036;28;20200;-71
2022/06/30 15:16:26;;;;;;;0.70;0.63;;;;;;;;;;5057755;28;20298;-70
2022/06/30 15:19:13;;;;;;;0.65;0.65;;;;;;;;;;5057134;28;20215;-72
2022/06/30 15:25:07;;;;;;;0.50;0.50;;;;;;;;;;5064928;28;20238;-70
2022/06/30 15:27:54;;;;;;;0.90;0.82;;;;;;;;;;5057001;28;20801;-71
2022/06/30 15:30:41;;;;;;;0.52;0.52;;;;;;;;;;5057965;28;20216;-71
2022/06/30 15:33:28;;;;;;;0.63;0.63;;;;;;;;;;5055228;28;20265;-71
2022/06/30 15:36:16;;;;;;;0.60;0.60;;;;;;;;;;5063168;28;20204;-70
2022/06/30 15:39:05;;;;;;;0.75;0.75;;;;;;;;;;5055030;28;20210;-71
2022/06/30 15:41:53;;;;;;;0.60;0.60;;;;;;;;;;5052007;28;20361;-71
2022/06/30 15:44:46;;;;;;;0.75;0.75;;;;;;;;;;5051953;28;20592;-70
2022/06/30 15:47:33;;;;;;;0.60;0.60;;;;;;;;;;5055782;28;20203;-71
2022/06/30 15:50:20;;;;;;;0.50;0.50;;;;;;;;;;5058479;28;20253;-70
2022/06/30 15:53:07;;;;;;;0.70;0.70;;;;;;;;;;5059604;28;20282;-71
2022/06/30 15:55:55;;;;;;;0.60;0.60;;;;;;;;;;5051864;28;20685;-71
2022/06/30 15:58:43;;;;;;;0.50;0.50;;;;;;;;;;5057530;28;20644;-71
2022/06/30 16:01:30;;;;;;;0.55;0.55;;;;;;;;;;5055911;28;20210;-71
2022/06/30 16:04:17;;;;;;;0.70;0.70;;;;;;;;;;5061063;28;20317;-72
2022/06/30 16:07:04;;;;;;;0.55;0.55;;;;;;;;;;5053501;28;20207;-71
2022/06/30 16:09:52;;;;;;;0.57;0.57;;;;;;;;;;5057163;28;20203;-70
2022/06/30 16:12:40;;;;;;;0.73;0.50;;;;;;;;;;5056813;28;20609;-71
2022/06/30 16:15:29;;;;;;;0.70;0.70;;;;;;;;;;5061648;28;20583;-71
2022/06/30 16:18:16;;;;;;;0.57;0.57;;;;;;;;;;5059800;28;20517;-71
2022/06/30 16:21:05;;;;;;;0.55;0.55;;;;;;;;;;5064416;28;20206;-71
2022/06/30 16:23:52;;;;;;;0.55;0.55;;;;;;;;;;5055149;28;20718;-71
2022/06/30 16:26:40;;;;;;;0.85;0.60;;;;;;;;;;5061051;28;20659;-71
2022/06/30 16:29:28;;;;;;;0.38;0.38;;;;;;;;;;5055515;28;20289;-71
2022/06/30 16:32:16;;;;;;;0.70;0.70;;;;;;;;;;5052765;28;20213;-70
2022/06/30 16:35:04;;;;;;;0.50;0.50;;;;;;;;;;5060711;28;20226;-70
2022/06/30 16:37:51;;;;;;;0.57;0.57;;;;;;;;;;5057309;28;20573;-71
2022/06/30 16:40:39;;;;;;;0.80;0.80;;;;;;;;;;5057871;28;20210;-72
2022/06/30 16:43:26;;;;;;;0.70;0.60;;;;;;;;;;5067233;28;20230;-71
2022/06/30 16:46:16;;;;;;;0.65;0.65;;;;;;;;;;5059283;28;20215;-71
2022/06/30 16:49:13;;;;;;;0.60;0.60;;;;;;;;;;5064137;28;20678;-71
2022/06/30 16:52:00;;;;;;;0.68;0.68;;;;;;;;;;5059569;28;20207;-71
2022/06/30 16:54:47;;;;;;;0.65;0.65;;;;;;;;;;5064283;28;20284;-71
2022/06/30 16:57:34;;;;;;;0.80;0.80;;;;;;;;;;5057647;28;20199;-71
2022/06/30 17:00:21;;;;;;;0.70;0.70;;;;;;;;;;5057923;28;20311;-71
2022/06/30 17:03:08;;;;;;;0.60;0.60;;;;;;;;;;5066938;28;20231;-71
2022/06/30 17:05:59;;;;;;;0.50;0.50;;;;;;;;;;5057421;28;20207;-71
2022/06/30 17:08:45;;;;;;;0.50;0.50;;;;;;;;;;5060844;28;20777;-70